Etusivu
METAR-TAF:

METAR-TAF

Lentoasemat :

Kristiansund, Norja

Leveyspiiri: 63-07N, Pituuspiiri: 007-50E, korkeus merenpinnasta: 6 m

Tämänhetkinen sää

Tämä raportti tehtiin 22 minuuttia sitten, kello 13.20 UTC
Tuuli 7 kn lännestä/luoteesta, vaihdellen lännen ja pohjoisen/luoteen välillä
Lämpötila 12°C
Kosteus 76%
Ilmanpaine 1028 hPa
Näkyvyys 10 km tai enemmän
Hajonneita pilviä 1200 ft:n korkeudessa

METAR: ENKB 241320Z 29007KT 260V330 9999 BKN012 12/08 Q1028 RMK WIND 745FT 32008KT

Aika: 15:42 (13:42 UTC)

Sääennuste

Tämä raportti tehtiin 2 tuntia ja 42 minuuttia sitten, kello 11.00 UTC
Ennuste voimassa 24. päivästä klo 12 UTC - 24. päivään klo 21 UTC
Tuuli 10 kn lännestä
Näkyvyys 10 km tai enemmän
Muutamia pilviä 300 ft:n korkeudessa
Hajonneita pilviä 800 ft:n korkeudessa
Todennäköisyys 40%
24. päivästä klo 12 UTC - 24. päivään klo 18 UTC
Hajanaisia pilviä 700 ft:n korkeudessa

TAF: ENKB 241100Z 2412/2421 27010KT 9999 FEW003 BKN008 PROB40 2412/2418 SCT007

Säähavainnot ja -ennusteet yli 4000 lentoasemalta (METAR- ja TAF-raportit).

Käytössä olevat sääasemat on merkitty karttaan keltaisilla ja punaisilla pisteillä.

Aseta hiiri pisteen päälle nähdäksesi sääaseman nimen.

Klikkaa sitten nähdäksesi säähavainnot ja -ennusteet.

Kartan vaihtaminen: klikkaa mustalla rastilla varustettuja vihreitä pisteitä, niin voit zoomata sisään; viivalla varustettua vihreää pistettä, niin voit zoomata ulos tai vihreitä nuolia, niin pääset viereisille kartoille.


METAR-TAF: